Time;durP1;ratioP1;P1;durP2;ratioP2;P2;SDS_P1;SDS_P2;PMS_P1;PMS_P2;Temp;Humidity;BMP_temperature;BMP_pressure;BME280_temperature;BME280_humidity;BME280_pressure;Samples;Min_cycle;Max_cycle;Signal;HPM_P1;HPM_P2
2023/07/11 00:01:01;;;;;;;23.60;5.70;;;;;;;;;;4993624;28;20022;-72
2023/07/11 00:03:27;;;;;;;19.45;6.22;;;;;;;;;;4993358;28;20027;-72
2023/07/11 00:05:59;;;;;;;19.10;6.10;;;;;;;;;;4993183;28;20018;-72
2023/07/11 00:08:26;;;;;;;24.13;6.25;;;;;;;;;;4993238;28;20064;-72
2023/07/11 00:10:52;;;;;;;18.17;6.03;;;;;;;;;;4993166;28;20402;-72
2023/07/11 00:13:18;;;;;;;17.45;6.35;;;;;;;;;;4993383;28;20030;-72
2023/07/11 00:15:54;;;;;;;19.23;5.63;;;;;;;;;;4993125;28;20560;-72
2023/07/11 00:18:20;;;;;;;15.13;6.03;;;;;;;;;;4993185;28;20386;-72
2023/07/11 00:20:47;;;;;;;16.90;6.07;;;;;;;;;;4992936;28;20022;-72
2023/07/11 00:23:13;;;;;;;14.88;6.20;;;;;;;;;;4993231;28;20495;-73
2023/07/11 00:25:39;;;;;;;13.80;6.40;;;;;;;;;;4992879;28;20033;-72
2023/07/11 00:28:05;;;;;;;15.60;6.40;;;;;;;;;;4992917;28;20032;-72
2023/07/11 00:30:33;;;;;;;17.55;6.55;;;;;;;;;;4992944;28;20073;-72
2023/07/11 00:32:59;;;;;;;18.05;6.72;;;;;;;;;;4993159;28;20022;-72
2023/07/11 00:35:26;;;;;;;18.23;6.30;;;;;;;;;;4993022;28;20387;-72
2023/07/11 00:37:52;;;;;;;14.57;5.65;;;;;;;;;;4992434;28;20031;-72
2023/07/11 00:40:18;;;;;;;19.20;6.68;;;;;;;;;;4992438;28;20026;-72
2023/07/11 00:42:44;;;;;;;15.57;5.90;;;;;;;;;;4992744;28;20033;-72
2023/07/11 00:45:29;;;;;;;17.50;6.28;;;;;;;;;;4992982;28;20080;-72
2023/07/11 00:47:56;;;;;;;11.95;6.13;;;;;;;;;;4992621;28;20030;-72
2023/07/11 00:50:22;;;;;;;22.58;6.50;;;;;;;;;;4992614;28;20513;-72
2023/07/11 00:52:48;;;;;;;19.30;6.10;;;;;;;;;;4992725;28;20028;-72
2023/07/11 00:55:15;;;;;;;19.35;6.32;;;;;;;;;;4992373;28;20034;-72
2023/07/11 00:57:43;;;;;;;12.68;6.32;;;;;;;;;;4992775;28;20045;-72
2023/07/11 01:00:09;;;;;;;19.08;6.22;;;;;;;;;;4992582;28;20030;-72
2023/07/11 01:02:36;;;;;;;15.60;6.60;;;;;;;;;;4992580;28;20026;-72
2023/07/11 01:05:03;;;;;;;13.90;6.70;;;;;;;;;;4992784;28;20026;-72
2023/07/11 01:07:34;;;;;;;15.27;6.13;;;;;;;;;;4992925;28;20030;-72
2023/07/11 01:10:00;;;;;;;15.80;6.40;;;;;;;;;;4992139;28;20041;-72
2023/07/11 01:12:27;;;;;;;17.58;6.88;;;;;;;;;;4992774;28;20030;-72
2023/07/11 01:14:53;;;;;;;19.00;6.47;;;;;;;;;;4992348;28;20422;-72
2023/07/11 01:17:22;;;;;;;16.60;6.43;;;;;;;;;;4992398;28;20028;-72
2023/07/11 01:19:49;;;;;;;20.83;6.97;;;;;;;;;;4992365;28;20037;-72
2023/07/11 01:22:16;;;;;;;12.48;6.60;;;;;;;;;;4992451;28;20041;-72
2023/07/11 01:24:42;;;;;;;17.55;6.45;;;;;;;;;;4992238;28;20038;-72
2023/07/11 01:27:08;;;;;;;20.60;8.05;;;;;;;;;;4991358;28;20026;-72
2023/07/11 01:29:35;;;;;;;15.23;6.35;;;;;;;;;;4992331;28;20038;-72
2023/07/11 01:32:01;;;;;;;19.55;6.97;;;;;;;;;;4992256;28;20072;-72
2023/07/11 01:34:28;;;;;;;12.35;6.28;;;;;;;;;;4992608;28;20072;-72
2023/07/11 01:36:54;;;;;;;17.95;6.85;;;;;;;;;;4992638;28;20046;-72
2023/07/11 01:39:20;;;;;;;17.88;5.90;;;;;;;;;;4991858;28;20030;-72
2023/07/11 01:41:47;;;;;;;16.67;6.57;;;;;;;;;;4991221;28;20036;-72
2023/07/11 01:44:13;;;;;;;17.65;6.90;;;;;;;;;;4992196;28;20034;-72
2023/07/11 01:46:40;;;;;;;17.40;6.57;;;;;;;;;;4992261;28;20014;-72
2023/07/11 01:49:06;;;;;;;17.50;6.85;;;;;;;;;;4992319;28;20030;-72
2023/07/11 01:51:32;;;;;;;16.85;6.80;;;;;;;;;;4995722;28;20048;-72
2023/07/11 01:53:58;;;;;;;17.15;6.70;;;;;;;;;;4995822;28;20030;-72
2023/07/11 01:56:25;;;;;;;16.75;6.95;;;;;;;;;;4995944;28;20029;-72
2023/07/11 01:58:51;;;;;;;18.02;6.95;;;;;;;;;;4995804;28;20029;-72
2023/07/11 02:01:17;;;;;;;13.20;7.00;;;;;;;;;;4995664;28;20022;-72
2023/07/11 02:03:44;;;;;;;18.95;7.53;;;;;;;;;;4995551;28;20022;-72
2023/07/11 02:06:10;;;;;;;16.45;6.63;;;;;;;;;;4995791;28;20030;-72
2023/07/11 02:08:36;;;;;;;18.30;7.30;;;;;;;;;;4995166;28;20072;-72
2023/07/11 02:11:02;;;;;;;13.88;6.55;;;;;;;;;;4978298;28;20037;-72
2023/07/11 02:13:29;;;;;;;19.85;6.88;;;;;;;;;;4995381;28;20029;-72
2023/07/11 02:15:55;;;;;;;17.90;7.32;;;;;;;;;;4995278;28;20047;-72
2023/07/11 02:18:22;;;;;;;24.65;7.20;;;;;;;;;;4995429;28;20463;-72
2023/07/11 02:20:48;;;;;;;21.65;6.97;;;;;;;;;;4993528;28;20034;-72
2023/07/11 02:23:15;;;;;;;23.10;6.43;;;;;;;;;;4995561;28;20048;-72
2023/07/11 02:25:42;;;;;;;18.38;7.40;;;;;;;;;;4995243;28;20479;-73
2023/07/11 02:28:08;;;;;;;20.00;6.90;;;;;;;;;;4995383;28;20026;-72
2023/07/11 02:30:35;;;;;;;17.08;7.20;;;;;;;;;;4995288;28;20041;-72
2023/07/11 02:33:01;;;;;;;18.98;7.28;;;;;;;;;;4995072;28;20509;-72
2023/07/11 02:35:28;;;;;;;19.02;7.50;;;;;;;;;;4994675;28;20030;-72
2023/07/11 02:37:54;;;;;;;17.40;7.82;;;;;;;;;;4995181;28;20037;-72
2023/07/11 02:40:20;;;;;;;22.60;7.20;;;;;;;;;;4995105;28;20040;-72
2023/07/11 02:42:47;;;;;;;17.05;6.88;;;;;;;;;;4993625;28;20018;-72
2023/07/11 02:45:14;;;;;;;13.88;6.78;;;;;;;;;;4995033;28;20031;-73
2023/07/11 02:47:40;;;;;;;19.40;8.15;;;;;;;;;;4994789;28;20526;-72
2023/07/11 02:50:07;;;;;;;20.42;7.10;;;;;;;;;;4994388;28;20414;-72
2023/07/11 02:52:34;;;;;;;17.02;7.28;;;;;;;;;;4994658;28;20015;-72
2023/07/11 02:55:01;;;;;;;13.57;7.47;;;;;;;;;;4994966;28;20030;-72
2023/07/11 02:57:27;;;;;;;15.10;6.50;;;;;;;;;;4994630;28;20413;-72
2023/07/11 02:59:53;;;;;;;15.80;7.38;;;;;;;;;;4994684;28;20021;-72
2023/07/11 03:02:20;;;;;;;14.88;7.60;;;;;;;;;;4993921;28;20041;-71
2023/07/11 03:04:46;;;;;;;18.95;7.32;;;;;;;;;;4994137;28;20022;-72
2023/07/11 03:07:12;;;;;;;21.13;7.85;;;;;;;;;;4994891;28;20032;-72
2023/07/11 03:09:39;;;;;;;16.65;7.30;;;;;;;;;;4994265;28;20042;-72
2023/07/11 03:12:06;;;;;;;17.27;6.95;;;;;;;;;;4994320;28;20018;-72
2023/07/11 03:14:32;;;;;;;15.70;7.40;;;;;;;;;;4994196;28;20041;-72
2023/07/11 03:16:59;;;;;;;17.02;7.13;;;;;;;;;;4994333;28;20030;-72
2023/07/11 03:19:25;;;;;;;16.70;7.35;;;;;;;;;;4993680;28;20034;-72
2023/07/11 03:21:51;;;;;;;20.88;8.13;;;;;;;;;;4994226;28;20022;-72
2023/07/11 03:24:17;;;;;;;23.65;8.00;;;;;;;;;;4992857;28;20030;-72
2023/07/11 03:26:46;;;;;;;17.02;7.18;;;;;;;;;;4993039;28;20026;-72
2023/07/11 03:29:13;;;;;;;16.50;7.28;;;;;;;;;;4994000;28;20506;-72
2023/07/11 03:31:40;;;;;;;17.70;7.32;;;;;;;;;;4994077;28;20088;-72
2023/07/11 03:34:07;;;;;;;17.65;7.90;;;;;;;;;;4992315;28;20036;-72
2023/07/11 03:36:33;;;;;;;18.58;6.95;;;;;;;;;;4993990;28;20380;-72
2023/07/11 03:38:59;;;;;;;17.85;7.57;;;;;;;;;;4993817;28;20076;-72
2023/07/11 03:41:25;;;;;;;19.02;7.50;;;;;;;;;;4993848;28;20038;-72
2023/07/11 03:43:52;;;;;;;19.67;7.07;;;;;;;;;;4993924;28;20101;-72
2023/07/11 03:46:18;;;;;;;16.05;7.80;;;;;;;;;;4993678;28;20034;-72
2023/07/11 03:48:45;;;;;;;16.30;7.40;;;;;;;;;;4993260;28;20030;-72
2023/07/11 03:51:11;;;;;;;17.52;6.88;;;;;;;;;;4993815;28;20437;-72
2023/07/11 03:53:37;;;;;;;15.13;7.65;;;;;;;;;;4993584;28;20029;-73
2023/07/11 03:56:05;;;;;;;19.30;7.82;;;;;;;;;;4993492;28;20044;-72
2023/07/11 03:58:32;;;;;;;15.35;8.30;;;;;;;;;;4993546;28;20495;-72
2023/07/11 04:00:58;;;;;;;27.80;8.80;;;;;;;;;;4993390;28;20037;-73
2023/07/11 04:03:25;;;;;;;21.15;8.38;;;;;;;;;;4993002;28;20026;-72
2023/07/11 04:05:51;;;;;;;15.77;7.75;;;;;;;;;;4992086;28;20052;-72
2023/07/11 04:08:17;;;;;;;13.73;6.97;;;;;;;;;;4993425;28;20026;-72
2023/07/11 04:10:44;;;;;;;17.58;7.40;;;;;;;;;;4993184;28;20030;-72
2023/07/11 04:13:10;;;;;;;16.63;7.95;;;;;;;;;;4992378;28;20027;-72
2023/07/11 04:15:36;;;;;;;16.80;7.63;;;;;;;;;;4993049;28;20049;-72
2023/07/11 04:18:03;;;;;;;18.42;7.50;;;;;;;;;;4992919;28;20026;-72
2023/07/11 04:20:29;;;;;;;21.10;7.60;;;;;;;;;;4993116;28;20550;-72
2023/07/11 04:22:55;;;;;;;14.57;7.68;;;;;;;;;;4993050;28;20076;-72
2023/07/11 04:25:21;;;;;;;16.75;8.38;;;;;;;;;;4992927;28;20030;-72
2023/07/11 04:27:48;;;;;;;20.30;8.18;;;;;;;;;;4993047;28;20464;-72
2023/07/11 04:30:14;;;;;;;17.23;7.93;;;;;;;;;;4992871;28;20040;-73
2023/07/11 04:32:41;;;;;;;16.08;7.68;;;;;;;;;;4992534;28;20025;-72
2023/07/11 04:35:11;;;;;;;19.48;7.65;;;;;;;;;;4992995;28;20022;-72
2023/07/11 04:37:37;;;;;;;17.75;8.15;;;;;;;;;;4992836;28;20026;-72
2023/07/11 04:40:04;;;;;;;17.80;8.25;;;;;;;;;;4992863;28;20041;-72
2023/07/11 04:42:30;;;;;;;17.40;7.93;;;;;;;;;;4992972;28;20026;-72
2023/07/11 04:44:56;;;;;;;19.48;7.78;;;;;;;;;;4992781;28;20386;-72
2023/07/11 04:47:23;;;;;;;12.18;7.55;;;;;;;;;;4992674;28;20026;-72
2023/07/11 04:49:49;;;;;;;17.95;7.95;;;;;;;;;;4992776;28;20034;-72
2023/07/11 04:52:15;;;;;;;17.77;8.32;;;;;;;;;;4992576;28;20026;-72
2023/07/11 04:54:42;;;;;;;20.02;8.10;;;;;;;;;;4992616;28;20028;-72
2023/07/11 04:57:08;;;;;;;18.58;8.43;;;;;;;;;;4992744;28;20037;-72
2023/07/11 04:59:34;;;;;;;14.88;8.05;;;;;;;;;;4992896;28;20057;-72
2023/07/11 05:02:00;;;;;;;19.73;7.53;;;;;;;;;;4992223;28;20410;-72
2023/07/11 05:04:27;;;;;;;19.05;8.13;;;;;;;;;;4992889;28;20034;-72
2023/07/11 05:06:53;;;;;;;16.83;7.82;;;;;;;;;;4992582;28;20602;-72
2023/07/11 05:09:19;;;;;;;21.63;8.85;;;;;;;;;;4992335;28;20436;-72
2023/07/11 05:11:46;;;;;;;21.65;8.02;;;;;;;;;;4991322;28;20030;-72
2023/07/11 05:14:12;;;;;;;12.80;7.35;;;;;;;;;;4992406;28;20026;-71
2023/07/11 05:16:38;;;;;;;18.30;8.02;;;;;;;;;;4992011;28;20085;-72
2023/07/11 05:19:05;;;;;;;16.75;7.82;;;;;;;;;;4992254;28;20502;-73
2023/07/11 05:21:31;;;;;;;19.25;8.25;;;;;;;;;;4992673;28;20049;-72
2023/07/11 05:23:57;;;;;;;24.30;8.93;;;;;;;;;;4992716;28;20018;-72
2023/07/11 05:26:24;;;;;;;32.50;9.05;;;;;;;;;;4996243;28;20023;-72
2023/07/11 05:28:50;;;;;;;40.28;9.23;;;;;;;;;;4996177;28;20030;-72
2023/07/11 05:31:17;;;;;;;40.13;10.38;;;;;;;;;;4995837;28;20258;-72
2023/07/11 05:33:43;;;;;;;29.60;8.93;;;;;;;;;;4996128;28;20017;-72
2023/07/11 05:36:31;;;;;;;16.42;7.85;;;;;;;;;;4996391;28;20041;-72
2023/07/11 05:39:11;;;;;;;18.80;8.27;;;;;;;;;;4996130;28;20395;-72
2023/07/11 05:41:38;;;;;;;16.55;7.65;;;;;;;;;;4996029;28;20028;-72
2023/07/11 05:44:05;;;;;;;17.55;8.15;;;;;;;;;;4995625;28;20026;-72
2023/07/11 05:46:31;;;;;;;18.25;8.80;;;;;;;;;;4996037;28;20410;-72
2023/07/11 05:48:59;;;;;;;28.38;8.63;;;;;;;;;;4995938;28;20037;-73
2023/07/11 05:51:25;;;;;;;26.77;8.70;;;;;;;;;;4995952;28;20022;-72
2023/07/11 05:53:52;;;;;;;21.30;8.00;;;;;;;;;;4995733;28;20033;-72
2023/07/11 05:56:19;;;;;;;25.65;8.27;;;;;;;;;;4995853;28;20034;-72
2023/07/11 05:58:47;;;;;;;24.70;8.55;;;;;;;;;;4995263;28;20080;-72
2023/07/11 06:01:15;;;;;;;20.63;7.93;;;;;;;;;;4995684;28;20026;-72
2023/07/11 06:03:41;;;;;;;42.97;8.77;;;;;;;;;;4995429;28;20026;-71
2023/07/11 06:06:11;;;;;;;28.42;8.30;;;;;;;;;;4995480;28;20408;-72
2023/07/11 06:08:38;;;;;;;13.80;7.25;;;;;;;;;;4995759;28;20026;-72
2023/07/11 06:11:04;;;;;;;18.45;8.07;;;;;;;;;;4995007;28;20545;-72
2023/07/11 06:13:31;;;;;;;19.00;8.25;;;;;;;;;;4994839;28;20376;-72
2023/07/11 06:16:02;;;;;;;20.73;8.02;;;;;;;;;;4993635;28;20054;-73
2023/07/11 06:18:30;;;;;;;16.17;8.18;;;;;;;;;;4984340;28;20480;-79
2023/07/11 06:20:57;;;;;;;21.60;7.80;;;;;;;;;;4993439;28;20487;-78
2023/07/11 06:23:24;;;;;;;15.88;7.53;;;;;;;;;;4994516;28;20029;-78
2023/07/11 06:25:50;;;;;;;18.52;8.18;;;;;;;;;;4994882;28;20038;-79
2023/07/11 06:28:17;;;;;;;16.33;7.57;;;;;;;;;;4994013;28;20399;-79
2023/07/11 06:30:43;;;;;;;20.55;8.25;;;;;;;;;;4995216;28;20042;-79
2023/07/11 06:33:10;;;;;;;19.67;7.65;;;;;;;;;;4990636;28;20042;-79
2023/07/11 06:35:37;;;;;;;15.38;7.70;;;;;;;;;;4994107;28;20026;-78
2023/07/11 06:38:04;;;;;;;15.20;8.25;;;;;;;;;;4994414;28;20029;-78
2023/07/11 06:40:30;;;;;;;16.45;6.90;;;;;;;;;;4994706;28;20023;-79
2023/07/11 06:42:56;;;;;;;16.25;7.05;;;;;;;;;;4985415;28;20045;-78
2023/07/11 06:45:23;;;;;;;17.17;7.60;;;;;;;;;;4993496;28;20015;-79
2023/07/11 06:47:50;;;;;;;19.33;7.93;;;;;;;;;;4993989;28;20483;-79
2023/07/11 06:50:16;;;;;;;14.63;7.60;;;;;;;;;;4993459;28;20414;-79
2023/07/11 06:52:43;;;;;;;13.77;7.60;;;;;;;;;;4993850;28;20026;-78
2023/07/11 06:55:10;;;;;;;17.25;7.93;;;;;;;;;;4993973;28;20509;-79
2023/07/11 06:57:37;;;;;;;15.45;7.88;;;;;;;;;;4990915;28;20022;-78
2023/07/11 07:00:05;;;;;;;18.80;7.55;;;;;;;;;;4993830;28;20057;-79
2023/07/11 07:02:31;;;;;;;24.83;8.07;;;;;;;;;;4993571;28;20025;-79
2023/07/11 07:04:57;;;;;;;14.25;7.55;;;;;;;;;;4991946;28;20527;-80
2023/07/11 07:07:23;;;;;;;22.70;8.27;;;;;;;;;;4993522;28;20022;-79
2023/07/11 07:09:50;;;;;;;15.50;8.13;;;;;;;;;;4993583;28;20042;-79
2023/07/11 07:12:17;;;;;;;20.20;7.50;;;;;;;;;;4991822;28;20499;-79
2023/07/11 07:14:43;;;;;;;18.85;7.47;;;;;;;;;;4992792;28;20515;-78
2023/07/11 07:17:10;;;;;;;17.42;7.53;;;;;;;;;;4990749;28;20479;-78
2023/07/11 07:19:36;;;;;;;13.75;7.07;;;;;;;;;;4993432;28;20038;-79
2023/07/11 07:22:02;;;;;;;12.30;6.85;;;;;;;;;;4991169;28;20027;-79
2023/07/11 07:24:29;;;;;;;12.60;6.65;;;;;;;;;;4986982;28;20039;-78
2023/07/11 07:26:55;;;;;;;21.40;7.57;;;;;;;;;;4985197;28;20390;-78
2023/07/11 07:29:24;;;;;;;11.43;7.00;;;;;;;;;;4993002;28;20030;-78
2023/07/11 07:31:50;;;;;;;20.85;7.78;;;;;;;;;;4993159;28;20022;-78
2023/07/11 07:34:16;;;;;;;14.07;6.68;;;;;;;;;;4992655;28;20076;-78
2023/07/11 07:36:42;;;;;;;15.73;7.00;;;;;;;;;;4993209;28;20036;-79
2023/07/11 07:39:09;;;;;;;23.38;7.22;;;;;;;;;;4978306;28;20031;-78
2023/07/11 07:41:35;;;;;;;17.05;7.40;;;;;;;;;;4988375;28;20026;-78
2023/07/11 07:44:01;;;;;;;14.60;6.93;;;;;;;;;;4993404;28;20026;-79
2023/07/11 07:46:28;;;;;;;13.27;6.38;;;;;;;;;;4988709;28;20390;-78
2023/07/11 07:48:54;;;;;;;18.05;7.80;;;;;;;;;;4992313;28;20049;-77
2023/07/11 07:51:21;;;;;;;14.50;6.88;;;;;;;;;;4991588;28;20038;-78
2023/07/11 07:53:47;;;;;;;20.27;7.18;;;;;;;;;;4993114;28;20036;-78
2023/07/11 07:56:16;;;;;;;14.48;6.70;;;;;;;;;;4992859;28;20041;-78
2023/07/11 07:58:42;;;;;;;22.92;7.32;;;;;;;;;;4991478;28;20038;-78
2023/07/11 08:01:09;;;;;;;18.30;7.22;;;;;;;;;;4992027;28;20026;-78
2023/07/11 08:03:38;;;;;;;16.30;6.38;;;;;;;;;;4992762;28;20025;-78
2023/07/11 08:06:04;;;;;;;13.20;6.07;;;;;;;;;;4992264;28;20434;-78
2023/07/11 08:08:31;;;;;;;15.13;6.78;;;;;;;;;;4992519;28;20029;-77
2023/07/11 08:11:01;;;;;;;16.70;6.43;;;;;;;;;;4992468;28;20038;-79
2023/07/11 08:13:27;;;;;;;;;;;;;;;;;;4992634;28;20030;-79
2023/07/11 08:15:54;;;;;;;17.88;6.63;;;;;;;;;;4991201;28;19918;-78
2023/07/11 08:18:20;;;;;;;23.10;6.65;;;;;;;;;;5001096;28;20033;-78
2023/07/11 08:20:46;;;;;;;17.77;6.82;;;;;;;;;;4992028;28;20018;-78
2023/07/11 08:23:13;;;;;;;18.00;6.45;;;;;;;;;;4977352;28;20031;-78
2023/07/11 08:25:41;;;;;;;16.52;6.68;;;;;;;;;;4972752;28;20019;-78
2023/07/11 08:28:07;;;;;;;20.40;6.85;;;;;;;;;;4972817;28;20039;-79
2023/07/11 08:30:37;;;;;;;21.17;6.10;;;;;;;;;;4973939;28;20053;-78
2023/07/11 08:33:03;;;;;;;22.73;6.55;;;;;;;;;;4992231;28;20022;-78
2023/07/11 08:35:30;;;;;;;27.02;7.25;;;;;;;;;;4991938;28;20026;-69
2023/07/11 08:37:57;;;;;;;22.10;5.95;;;;;;;;;;4991780;28;20018;-71
2023/07/11 08:40:25;;;;;;;19.52;6.30;;;;;;;;;;4992481;28;20038;-71
2023/07/11 08:42:52;;;;;;;24.37;7.37;;;;;;;;;;4988592;28;20364;-71
2023/07/11 08:45:30;;;;;;;22.08;6.15;;;;;;;;;;4990906;28;20054;-72
2023/07/11 08:48:05;;;;;;;18.38;6.50;;;;;;;;;;4991134;28;20026;-71
2023/07/11 08:50:45;;;;;;;25.30;7.60;;;;;;;;;;4991936;28;20044;-71
2023/07/11 08:53:16;;;;;;;27.10;6.70;;;;;;;;;;4991961;28;20030;-70
2023/07/11 08:55:44;;;;;;;21.05;7.00;;;;;;;;;;4991708;28;20550;-71
2023/07/11 08:58:14;;;;;;;21.38;6.53;;;;;;;;;;4992006;28;20027;-70
2023/07/11 09:00:42;;;;;;;19.58;6.47;;;;;;;;;;4991089;28;20028;-72
2023/07/11 09:03:26;;;;;;;20.65;7.13;;;;;;;;;;4982378;28;20111;-69
2023/07/11 09:05:56;;;;;;;26.30;6.88;;;;;;;;;;4987393;28;20015;-69
2023/07/11 09:08:23;;;;;;;27.48;6.22;;;;;;;;;;4990556;28;20493;-68
2023/07/11 09:11:01;;;;;;;25.88;6.22;;;;;;;;;;4990837;28;20410;-67
2023/07/11 09:13:36;;;;;;;25.35;7.18;;;;;;;;;;4986597;28;20029;-70
2023/07/11 09:16:12;;;;;;;26.45;7.03;;;;;;;;;;4991714;28;20053;-69
2023/07/11 09:18:41;;;;;;;34.97;7.00;;;;;;;;;;4991879;28;20024;-72
2023/07/11 09:21:12;;;;;;;35.58;7.07;;;;;;;;;;4991762;28;20042;-69
2023/07/11 09:23:47;;;;;;;29.67;6.60;;;;;;;;;;4976933;28;20368;-68
2023/07/11 09:26:20;;;;;;;41.22;7.93;;;;;;;;;;4991618;28;20042;-70
2023/07/11 09:28:46;;;;;;;32.38;6.53;;;;;;;;;;4991245;28;20034;-71
2023/07/11 09:31:16;;;;;;;36.08;7.25;;;;;;;;;;4990394;28;20042;-71
2023/07/11 09:33:47;;;;;;;28.10;6.85;;;;;;;;;;4992082;28;20030;-72
2023/07/11 09:36:13;;;;;;;;;;;;;;;;;;4991861;28;20026;-68
2023/07/11 09:38:43;;;;;;;36.75;6.60;;;;;;;;;;4991010;28;19910;-69
2023/07/11 09:41:25;;;;;;;152.30;12.00;;;;;;;;;;4990496;28;20463;-68
2023/07/11 09:43:53;;;;;;;77.00;7.57;;;;;;;;;;4982817;28;20030;-68
2023/07/11 09:46:24;;;;;;;67.55;8.38;;;;;;;;;;4990224;28;20037;-67
2023/07/11 09:48:53;;;;;;;69.82;8.38;;;;;;;;;;4991056;28;20027;-68
2023/07/11 09:51:36;;;;;;;79.95;9.13;;;;;;;;;;4990152;28;20088;-71
2023/07/11 09:54:29;;;;;;;68.53;8.50;;;;;;;;;;4989505;28;20041;-71
2023/07/11 09:56:55;;;;;;;38.55;7.18;;;;;;;;;;4982009;28;20038;-69
2023/07/11 09:59:22;;;;;;;55.45;7.43;;;;;;;;;;4987573;28;20029;-70
2023/07/11 10:01:56;;;;;;;48.25;8.15;;;;;;;;;;4984637;28;20030;-69
2023/07/11 10:04:24;;;;;;;42.70;7.53;;;;;;;;;;4988581;28;20034;-70
2023/07/11 10:06:53;;;;;;;39.25;7.18;;;;;;;;;;4990286;28;20045;-70
2023/07/11 10:09:22;;;;;;;36.95;6.72;;;;;;;;;;4991147;28;20032;-70
2023/07/11 10:11:56;;;;;;;35.10;7.07;;;;;;;;;;4992411;28;20042;-70
2023/07/11 10:14:36;;;;;;;34.03;7.15;;;;;;;;;;4993571;28;20022;-69
2023/07/11 10:17:04;;;;;;;36.15;7.15;;;;;;;;;;4994611;28;20026;-70
2023/07/11 10:19:30;;;;;;;34.75;6.45;;;;;;;;;;4993793;28;20026;-69
2023/07/11 10:21:59;;;;;;;26.15;6.30;;;;;;;;;;4994672;28;20024;-69
2023/07/11 10:24:26;;;;;;;33.63;6.43;;;;;;;;;;4994780;28;20032;-70
2023/07/11 10:26:58;;;;;;;21.27;6.03;;;;;;;;;;4994728;28;20022;-70
2023/07/11 10:29:28;;;;;;;27.83;6.68;;;;;;;;;;4993981;28;20019;-69
2023/07/11 10:31:57;;;;;;;19.45;5.85;;;;;;;;;;4994248;28;20030;-69
2023/07/11 10:34:28;;;;;;;24.63;6.43;;;;;;;;;;4994186;28;20034;-70
2023/07/11 10:36:58;;;;;;;22.45;5.60;;;;;;;;;;4994391;28;20036;-69
2023/07/11 10:39:40;;;;;;;24.27;5.90;;;;;;;;;;4994821;28;20036;-70
2023/07/11 10:42:09;;;;;;;17.25;5.32;;;;;;;;;;4994172;28;20018;-70
2023/07/11 10:44:39;;;;;;;21.55;5.68;;;;;;;;;;4984931;28;20072;-69
2023/07/11 10:47:08;;;;;;;20.63;5.57;;;;;;;;;;4974901;28;20037;-70
2023/07/11 10:49:45;;;;;;;22.88;5.35;;;;;;;;;;4974552;28;20050;-70
2023/07/11 10:52:23;;;;;;;22.35;5.75;;;;;;;;;;4974694;28;20476;-69
2023/07/11 10:54:55;;;;;;;19.20;5.10;;;;;;;;;;4974866;28;20031;-70
2023/07/11 10:57:30;;;;;;;17.17;5.55;;;;;;;;;;4973818;28;20027;-69
2023/07/11 10:59:56;;;;;;;21.75;5.30;;;;;;;;;;4973552;28;20022;-70
2023/07/11 11:02:26;;;;;;;22.73;5.30;;;;;;;;;;4974957;28;20034;-69
2023/07/11 11:05:04;;;;;;;26.70;5.90;;;;;;;;;;4974641;28;20120;-72
2023/07/11 11:08:00;;;;;;;26.30;5.55;;;;;;;;;;4974361;28;20280;-69
2023/07/11 11:10:38;;;;;;;25.65;5.57;;;;;;;;;;4980072;28;20056;-69
2023/07/11 11:13:07;;;;;;;24.17;5.22;;;;;;;;;;4974933;28;20031;-69
2023/07/11 11:15:33;;;;;;;21.42;5.10;;;;;;;;;;4937808;28;20060;-70
2023/07/11 11:18:17;;;;;;;20.52;5.22;;;;;;;;;;4935676;29;20036;-69
2023/07/11 11:20:53;;;;;;;19.13;5.38;;;;;;;;;;4935450;29;20028;-70
2023/07/11 11:23:38;;;;;;;20.08;6.05;;;;;;;;;;4935053;29;20500;-70
2023/07/11 11:26:23;;;;;;;18.73;4.97;;;;;;;;;;4935377;29;20034;-69
2023/07/11 11:29:04;;;;;;;18.15;5.05;;;;;;;;;;4935152;29;20023;-70
2023/07/11 11:31:32;;;;;;;28.08;6.00;;;;;;;;;;4925043;29;20036;-69
2023/07/11 11:34:18;;;;;;;27.35;5.47;;;;;;;;;;4935209;29;20060;-69
2023/07/11 11:36:45;;;;;;;28.55;5.93;;;;;;;;;;4875430;29;20085;-69
2023/07/11 11:39:30;;;;;;;24.80;5.95;;;;;;;;;;4890518;29;20037;-69
2023/07/11 11:41:59;;;;;;;20.38;5.30;;;;;;;;;;4894528;29;20041;-69
2023/07/11 11:44:51;;;;;;;20.90;5.50;;;;;;;;;;4895110;29;20540;-69
2023/07/11 11:47:18;;;;;;;28.40;5.68;;;;;;;;;;4891947;29;20420;-69
2023/07/11 11:49:44;;;;;;;20.02;5.25;;;;;;;;;;4895094;29;20042;-69
2023/07/11 11:52:11;;;;;;;14.65;5.18;;;;;;;;;;4894720;29;20506;-70
2023/07/11 11:54:47;;;;;;;17.60;5.55;;;;;;;;;;4894903;29;20052;-70
2023/07/11 11:57:21;;;;;;;20.83;4.57;;;;;;;;;;4879500;29;20025;-69
2023/07/11 11:59:47;;;;;;;22.48;4.60;;;;;;;;;;4876142;29;20043;-68
2023/07/11 12:02:34;;;;;;;23.13;5.25;;;;;;;;;;4875039;29;20032;-69
2023/07/11 12:05:16;;;;;;;24.65;5.47;;;;;;;;;;4875499;29;20051;-70
2023/07/11 12:07:43;;;;;;;20.10;5.22;;;;;;;;;;4875867;29;20079;-69
2023/07/11 12:10:09;;;;;;;22.92;4.93;;;;;;;;;;4875506;29;20049;-69
2023/07/11 12:12:35;;;;;;;16.70;4.82;;;;;;;;;;4875490;29;20025;-70
2023/07/11 12:15:11;;;;;;;15.60;4.50;;;;;;;;;;4914886;29;20047;-70
2023/07/11 12:17:40;;;;;;;20.15;5.45;;;;;;;;;;4930610;29;20042;-69
2023/07/11 12:20:06;;;;;;;21.85;5.22;;;;;;;;;;4934648;29;20024;-69
2023/07/11 12:22:32;;;;;;;17.80;4.80;;;;;;;;;;4932180;29;20488;-69
2023/07/11 12:25:02;;;;;;;16.23;5.15;;;;;;;;;;4934541;29;20046;-69
2023/07/11 12:27:28;;;;;;;24.08;5.20;;;;;;;;;;4934794;29;20028;-69
2023/07/11 12:29:55;;;;;;;23.02;5.32;;;;;;;;;;4934195;29;20036;-69
2023/07/11 12:32:33;;;;;;;20.60;4.78;;;;;;;;;;4948063;29;20020;-69
2023/07/11 12:35:06;;;;;;;16.70;4.35;;;;;;;;;;4933602;29;20031;-69
2023/07/11 12:37:37;;;;;;;11.65;4.50;;;;;;;;;;4933572;29;20028;-68
2023/07/11 12:40:23;;;;;;;17.08;4.75;;;;;;;;;;4934173;29;20495;-69
2023/07/11 12:42:59;;;;;;;18.67;4.38;;;;;;;;;;4932954;29;20024;-69
2023/07/11 12:45:27;;;;;;;24.98;4.47;;;;;;;;;;4933401;29;20038;-69
2023/07/11 12:48:01;;;;;;;21.80;4.35;;;;;;;;;;4933527;29;20092;-69
2023/07/11 12:50:33;;;;;;;23.65;4.38;;;;;;;;;;4933767;29;20036;-69
2023/07/11 12:53:01;;;;;;;15.38;4.20;;;;;;;;;;4933948;29;20571;-69
2023/07/11 12:55:29;;;;;;;14.43;4.20;;;;;;;;;;4933960;29;20086;-70
2023/07/11 12:57:55;;;;;;;17.33;3.72;;;;;;;;;;4933127;29;20102;-69
2023/07/11 13:00:22;;;;;;;21.67;4.40;;;;;;;;;;4934254;29;20053;-69
2023/07/11 13:02:54;;;;;;;17.20;3.95;;;;;;;;;;4933617;29;20022;-70
2023/07/11 13:05:22;;;;;;;19.67;4.35;;;;;;;;;;4934087;29;20038;-69
2023/07/11 13:07:48;;;;;;;23.42;4.35;;;;;;;;;;4933847;29;20027;-69
2023/07/11 13:10:20;;;;;;;20.42;4.28;;;;;;;;;;4933788;29;20028;-69
2023/07/11 13:12:47;;;;;;;17.08;4.22;;;;;;;;;;4933652;29;20026;-69
2023/07/11 13:15:18;;;;;;;18.92;4.32;;;;;;;;;;4933607;29;20044;-69
2023/07/11 13:17:46;;;;;;;17.58;4.25;;;;;;;;;;4933461;29;20024;-69
2023/07/11 13:20:39;;;;;;;19.98;4.72;;;;;;;;;;4934029;29;20043;-70
2023/07/11 13:23:07;;;;;;;18.77;4.45;;;;;;;;;;4933031;29;20043;-68
2023/07/11 13:25:34;;;;;;;17.77;4.43;;;;;;;;;;4932213;29;20524;-69
2023/07/11 13:28:01;;;;;;;14.35;4.07;;;;;;;;;;4932931;29;20501;-69
2023/07/11 13:30:34;;;;;;;13.18;3.90;;;;;;;;;;4931871;29;20049;-70
2023/07/11 13:33:03;;;;;;;20.52;4.72;;;;;;;;;;4932902;29;20042;-70
2023/07/11 13:35:32;;;;;;;20.02;5.03;;;;;;;;;;4933830;29;20511;-69
2023/07/11 13:38:00;;;;;;;24.23;4.85;;;;;;;;;;4933931;29;20019;-69
2023/07/11 13:40:35;;;;;;;17.55;4.55;;;;;;;;;;4933797;29;20036;-69
2023/07/11 13:43:02;;;;;;;19.40;4.88;;;;;;;;;;4932949;29;20031;-70
2023/07/11 13:45:29;;;;;;;22.83;4.97;;;;;;;;;;4934289;29;20032;-70
2023/07/11 13:47:55;;;;;;;19.17;4.60;;;;;;;;;;4937609;29;20036;-69
2023/07/11 13:50:23;;;;;;;27.15;5.35;;;;;;;;;;4937826;29;20039;-69
2023/07/11 13:52:50;;;;;;;30.80;4.45;;;;;;;;;;4937299;29;20026;-69
2023/07/11 13:55:19;;;;;;;36.53;5.20;;;;;;;;;;4937487;29;20036;-70
2023/07/11 13:57:45;;;;;;;30.27;5.40;;;;;;;;;;4937474;29;20023;-70
2023/07/11 14:00:13;;;;;;;23.23;5.10;;;;;;;;;;4934767;29;20041;-70
2023/07/11 14:02:39;;;;;;;18.95;4.60;;;;;;;;;;4951137;29;20034;-70
2023/07/11 14:05:13;;;;;;;18.13;5.40;;;;;;;;;;4936727;29;20016;-69
2023/07/11 14:07:39;;;;;;;21.40;4.95;;;;;;;;;;4936995;29;20024;-69
2023/07/11 14:10:06;;;;;;;22.08;4.78;;;;;;;;;;4936860;29;20387;-69
2023/07/11 14:12:33;;;;;;;18.35;4.72;;;;;;;;;;4936964;29;20032;-69
2023/07/11 14:15:00;;;;;;;17.02;4.95;;;;;;;;;;4936360;29;20044;-70
2023/07/11 14:17:26;;;;;;;20.70;4.88;;;;;;;;;;4936036;29;20030;-69
2023/07/11 14:19:52;;;;;;;19.73;4.22;;;;;;;;;;4936678;29;20028;-69
2023/07/11 14:22:23;;;;;;;15.48;4.97;;;;;;;;;;4956241;28;20027;-69
2023/07/11 14:24:51;;;;;;;21.27;4.90;;;;;;;;;;4953680;29;20034;-68
2023/07/11 14:27:18;;;;;;;24.10;4.82;;;;;;;;;;4950708;29;20046;-69
2023/07/11 14:29:44;;;;;;;21.65;4.65;;;;;;;;;;4936286;29;20030;-69
2023/07/11 14:32:13;;;;;;;19.48;5.00;;;;;;;;;;4935823;29;20053;-69
2023/07/11 14:34:39;;;;;;;19.27;4.40;;;;;;;;;;4935789;29;20032;-69
2023/07/11 14:37:09;;;;;;;19.17;5.05;;;;;;;;;;4935995;29;20012;-69
2023/07/11 14:39:36;;;;;;;23.15;5.68;;;;;;;;;;4936099;29;20038;-69